Time;durP1;ratioP1;P1;durP2;ratioP2;P2;SDS_P1;SDS_P2;PMS_P1;PMS_P2;Temp;Humidity;BMP_temperature;BMP_pressure;BME280_temperature;BME280_humidity;BME280_pressure;Samples;Min_cycle;Max_cycle;Signal;HPM_P1;HPM_P2
2022/10/24 15:21:48;;;;;;;0.60;0.60;;;20.10;99.90;;;;;;5090793;28;20607;-67
2022/10/24 15:24:21;;;;;;;2.40;1.10;;;20.10;99.90;;;;;;5089340;28;20469;-65
2022/10/24 15:26:48;;;;;;;0.80;0.80;;;20.20;99.90;;;;;;5088987;28;20476;-68
2022/10/24 15:29:19;;;;;;;0.80;0.80;;;20.30;99.90;;;;;;5089268;28;20868;-70
2022/10/24 15:31:48;;;;;;;1.83;1.03;;;20.30;99.90;;;;;;5089401;28;20533;-67
2022/10/24 15:34:16;;;;;;;2.07;1.20;;;20.30;99.90;;;;;;5117112;22;20496;-70
2022/10/24 15:36:45;;;;;;;2.40;1.10;;;20.40;99.90;;;;;;5102215;28;20479;-71
2022/10/24 15:39:16;;;;;;;5.30;0.93;;;20.50;99.90;;;;;;5109332;28;20528;-71
2022/10/24 15:41:44;;;;;;;1.37;1.30;;;20.50;99.90;;;;;;5108951;28;20488;-71
2022/10/24 15:44:16;;;;;;;0.83;0.73;;;20.60;99.90;;;;;;5108034;28;20497;-71
2022/10/24 15:46:43;;;;;;;1.30;1.20;;;20.60;99.90;;;;;;5108197;28;20449;-71
2022/10/24 15:49:11;;;;;;;2.07;1.40;;;20.70;99.90;;;;;;5109535;28;20453;-71
2022/10/24 15:51:39;;;;;;;4.37;1.33;;;20.70;99.90;;;;;;5109353;28;20442;-71
2022/10/24 15:54:06;;;;;;;0.70;0.60;;;20.70;99.90;;;;;;5109078;28;20470;-72
2022/10/24 15:56:34;;;;;;;2.20;1.17;;;20.70;99.90;;;;;;5108954;28;20446;-71
2022/10/24 15:59:01;;;;;;;1.37;1.00;;;20.80;99.90;;;;;;5108888;28;20465;-72
2022/10/24 16:01:31;;;;;;;3.40;1.93;;;20.80;99.90;;;;;;5108409;28;20560;-71
2022/10/24 16:03:59;;;;;;;1.13;1.13;;;20.80;99.90;;;;;;5108667;28;20548;-71
2022/10/24 16:06:26;;;;;;;3.13;1.13;;;20.90;99.90;;;;;;5108783;28;20548;-72
2022/10/24 16:08:53;;;;;;;2.03;1.10;;;20.90;99.90;;;;;;5108686;28;20595;-72
2022/10/24 16:11:20;;;;;;;1.67;0.93;;;20.90;99.90;;;;;;5108489;28;20525;-71
2022/10/24 16:13:49;;;;;;;1.40;0.90;;;20.90;99.90;;;;;;5108459;28;20458;-72
2022/10/24 16:16:15;;;;;;;0.67;0.67;;;20.90;99.90;;;;;;5108657;28;20448;-72
2022/10/24 16:18:42;;;;;;;3.37;0.83;;;20.90;99.90;;;;;;5108440;28;20868;-71
2022/10/24 16:21:15;;;;;;;2.67;1.60;;;20.90;99.90;;;;;;5108053;28;21002;-71
2022/10/24 16:23:42;;;;;;;0.90;0.80;;;21.00;99.90;;;;;;5108362;28;20540;-71
2022/10/24 16:26:09;;;;;;;2.77;1.20;;;21.00;99.90;;;;;;5108371;28;20946;-71
2022/10/24 16:28:36;;;;;;;1.70;0.83;;;21.00;99.90;;;;;;5108040;28;20560;-72
2022/10/24 16:31:06;;;;;;;2.53;1.07;;;21.00;99.90;;;;;;5106420;28;20881;-71
2022/10/24 16:33:33;;;;;;;1.10;0.90;;;21.00;99.90;;;;;;5093975;28;20564;-72
2022/10/24 16:36:00;;;;;;;1.50;1.40;;;21.00;99.90;;;;;;5094624;28;20474;-72
2022/10/24 16:38:27;;;;;;;0.83;0.83;;;21.00;99.90;;;;;;5094414;28;20486;-71
2022/10/24 16:40:54;;;;;;;1.53;1.07;;;21.00;99.90;;;;;;5094335;28;20569;-72
2022/10/24 16:43:21;;;;;;;2.30;0.80;;;21.00;99.90;;;;;;5094393;28;20464;-72
2022/10/24 16:45:56;;;;;;;1.00;0.90;;;21.10;99.90;;;;;;5094402;28;20533;-71
2022/10/24 16:48:24;;;;;;;0.63;0.63;;;21.00;99.90;;;;;;5094241;28;20456;-72
2022/10/24 16:50:51;;;;;;;0.70;0.50;;;21.10;99.90;;;;;;5094224;28;20935;-70
2022/10/24 16:53:18;;;;;;;0.93;0.93;;;21.10;99.90;;;;;;5094242;28;20451;-72
2022/10/24 16:55:49;;;;;;;1.77;1.00;;;21.10;99.90;;;;;;5094318;28;20451;-71
2022/10/24 16:58:17;;;;;;;1.97;0.87;;;21.10;99.90;;;;;;5094286;28;20452;-72
2022/10/24 17:00:44;;;;;;;0.70;0.70;;;21.10;99.90;;;;;;5093791;28;20492;-70
2022/10/24 17:03:12;;;;;;;0.87;0.77;;;21.10;99.90;;;;;;5094113;28;21026;-70
2022/10/24 17:05:42;;;;;;;1.03;0.80;;;21.10;99.90;;;;;;5093994;28;20885;-72
2022/10/24 17:08:09;;;;;;;0.70;0.70;;;21.10;99.90;;;;;;5094077;28;20535;-70
2022/10/24 17:10:37;;;;;;;0.83;0.83;;;21.10;99.90;;;;;;5093842;28;20522;-71
2022/10/24 17:13:06;;;;;;;1.20;0.70;;;21.10;99.90;;;;;;5093922;28;20868;-71
2022/10/24 17:15:33;;;;;;;2.70;1.10;;;21.10;99.90;;;;;;5093895;28;20503;-71
2022/10/24 17:18:00;;;;;;;1.13;0.80;;;21.10;99.90;;;;;;5093810;28;20427;-71
2022/10/24 17:20:26;;;;;;;1.27;0.83;;;21.10;99.90;;;;;;5093501;28;20478;-71
2022/10/24 17:22:55;;;;;;;1.73;1.27;;;21.10;99.90;;;;;;5093573;28;20489;-72
2022/10/24 17:25:24;;;;;;;0.90;0.90;;;21.10;99.90;;;;;;5093841;28;20449;-69
2022/10/24 17:27:52;;;;;;;1.17;0.90;;;21.10;99.90;;;;;;5093757;28;20521;-71
2022/10/24 17:30:22;;;;;;;0.70;0.70;;;21.10;99.90;;;;;;5093605;28;20447;-71
2022/10/24 17:32:49;;;;;;;0.90;0.90;;;21.10;99.90;;;;;;5093361;28;20601;-72
2022/10/24 17:35:19;;;;;;;0.97;0.97;;;21.10;99.90;;;;;;5093329;28;20565;-71
2022/10/24 17:38:01;;;;;;;2.20;2.00;;;21.10;99.90;;;;;;5089392;28;20482;-72
2022/10/24 17:40:39;;;;;;;3.07;2.57;;;21.10;99.90;;;;;;5062805;28;20502;-72
2022/10/24 17:43:06;;;;;;;3.40;2.50;;;21.10;99.90;;;;;;5072456;28;20454;-71
2022/10/24 17:45:34;;;;;;;4.13;2.80;;;21.10;99.90;;;;;;5073211;28;20474;-72
2022/10/24 17:48:01;;;;;;;3.50;2.30;;;21.00;99.90;;;;;;5072571;28;20530;-72
2022/10/24 17:50:28;;;;;;;3.97;2.63;;;21.00;99.90;;;;;;5071540;28;20436;-72
2022/10/24 17:52:56;;;;;;;2.73;2.10;;;21.00;99.90;;;;;;5073318;28;20853;-71
2022/10/24 17:55:26;;;;;;;2.93;2.67;;;21.00;99.90;;;;;;5073251;28;20447;-71
2022/10/24 17:57:53;;;;;;;4.90;3.40;;;21.00;99.90;;;;;;5073087;28;20455;-71
2022/10/24 18:00:20;;;;;;;3.43;3.23;;;21.00;99.90;;;;;;5072814;28;20435;-71
2022/10/24 18:02:47;;;;;;;3.80;2.70;;;21.00;99.90;;;;;;5073085;28;20538;-71
2022/10/24 18:05:15;;;;;;;3.13;2.87;;;21.00;99.90;;;;;;5073071;28;20881;-71
2022/10/24 18:07:43;;;;;;;3.20;2.73;;;21.00;99.90;;;;;;5072747;28;21011;-71
2022/10/24 18:10:12;;;;;;;2.60;2.40;;;21.00;99.90;;;;;;5073253;28;20486;-70
2022/10/24 18:12:40;;;;;;;6.03;4.17;;;21.00;99.90;;;;;;5073228;28;20451;-69
2022/10/24 18:15:10;;;;;;;8.07;3.40;;;21.00;99.90;;;;;;5072935;28;20509;-70
2022/10/24 18:17:37;;;;;;;4.27;3.17;;;21.00;99.90;;;;;;5073356;28;20524;-71
2022/10/24 18:20:06;;;;;;;5.87;2.90;;;21.00;99.90;;;;;;5072902;28;20486;-70
2022/10/24 18:22:34;;;;;;;3.50;3.20;;;21.00;99.90;;;;;;5072671;28;20482;-71
2022/10/24 18:25:01;;;;;;;6.13;3.60;;;20.90;99.90;;;;;;5072700;28;21059;-71
2022/10/24 18:27:30;;;;;;;2.97;2.77;;;21.00;99.90;;;;;;5072715;28;20462;-71
2022/10/24 18:29:57;;;;;;;3.20;2.77;;;20.90;99.90;;;;;;5071867;28;20453;-72
2022/10/24 18:32:24;;;;;;;6.93;3.00;;;20.90;99.90;;;;;;5072338;28;20825;-76
2022/10/24 18:34:51;;;;;;;7.30;4.73;;;20.90;99.90;;;;;;5072512;28;20475;-72
2022/10/24 18:37:19;;;;;;;4.00;3.40;;;21.00;99.90;;;;;;5072299;28;20443;-72
2022/10/24 18:39:47;;;;;;;4.30;3.40;;;21.00;99.90;;;;;;5072219;28;20443;-72
2022/10/24 18:42:24;;;;;;;4.20;3.27;;;21.00;99.90;;;;;;5072286;28;20566;-70
2022/10/24 18:44:54;;;;;;;4.17;3.87;;;21.00;99.90;;;;;;5072147;28;20490;-72
2022/10/24 18:47:22;;;;;;;3.53;3.00;;;21.00;99.90;;;;;;5071991;28;20458;-70
2022/10/24 18:49:49;;;;;;;3.60;3.30;;;21.00;99.90;;;;;;5072107;28;20518;-68
2022/10/24 18:52:21;;;;;;;3.30;3.00;;;21.00;99.90;;;;;;5072154;28;20467;-70
2022/10/24 18:55:00;;;;;;;3.80;3.07;;;21.00;99.90;;;;;;5072118;28;20498;-72
2022/10/24 18:57:29;;;;;;;3.37;3.07;;;21.00;99.90;;;;;;5072319;28;20811;-71
2022/10/24 18:59:58;;;;;;;6.40;3.60;;;21.00;99.90;;;;;;5071997;28;20459;-72
2022/10/24 19:02:31;;;;;;;3.93;3.17;;;21.00;99.90;;;;;;5072035;28;20556;-71
2022/10/24 19:05:07;;;;;;;5.60;4.20;;;21.00;99.90;;;;;;5072280;28;20459;-70
2022/10/24 19:07:34;;;;;;;7.67;3.97;;;21.10;99.90;;;;;;5071672;28;20449;-70
2022/10/24 19:10:01;;;;;;;3.30;2.83;;;21.00;99.90;;;;;;5072094;28;20634;-72
2022/10/24 19:12:28;;;;;;;4.90;3.80;;;21.00;99.90;;;;;;5074755;28;20447;-71
2022/10/24 19:14:57;;;;;;;2.97;2.17;;;21.10;99.90;;;;;;5075195;28;21003;-70
2022/10/24 19:17:24;;;;;;;5.50;3.10;;;21.00;99.90;;;;;;5076915;28;20479;-71
2022/10/24 19:19:53;;;;;;;5.37;3.23;;;21.00;99.90;;;;;;5076571;28;20455;-70
2022/10/24 19:22:20;;;;;;;4.70;3.70;;;21.00;99.90;;;;;;5071841;28;20987;-71
2022/10/24 19:24:47;;;;;;;6.03;3.20;;;21.00;99.90;;;;;;5071604;28;20474;-69
2022/10/24 19:27:14;;;;;;;5.53;5.03;;;21.00;99.90;;;;;;5071824;28;20489;-72
2022/10/24 19:29:41;;;;;;;5.63;3.53;;;21.10;99.90;;;;;;5072957;28;20443;-71
2022/10/24 19:32:10;;;;;;;12.53;6.60;;;21.10;99.90;;;;;;5073050;28;20444;-70
2022/10/24 19:34:39;;;;;;;10.70;5.50;;;21.10;99.90;;;;;;5071844;28;20479;-71
2022/10/24 19:37:06;;;;;;;7.23;6.07;;;21.10;99.90;;;;;;5071595;28;20455;-71
2022/10/24 19:39:33;;;;;;;7.47;6.77;;;21.10;99.90;;;;;;5071911;28;20516;-71
2022/10/24 19:42:00;;;;;;;8.00;4.80;;;21.10;99.90;;;;;;5071716;28;20506;-73
2022/10/24 19:44:27;;;;;;;8.30;6.20;;;21.10;99.90;;;;;;5071715;28;20972;-72
2022/10/24 19:46:54;;;;;;;6.93;5.77;;;21.10;99.90;;;;;;5071348;28;20451;-71
2022/10/24 19:49:22;;;;;;;8.10;4.93;;;21.10;99.90;;;;;;5071587;28;20475;-73
2022/10/24 19:51:51;;;;;;;5.93;5.20;;;21.10;99.90;;;;;;5071378;28;20526;-73
2022/10/24 19:54:18;;;;;;;5.77;5.20;;;21.10;99.90;;;;;;5071715;28;20467;-72
2022/10/24 19:56:48;;;;;;;6.60;6.00;;;21.10;99.90;;;;;;5071656;28;20482;-71
2022/10/24 19:59:15;;;;;;;6.13;5.27;;;21.10;99.90;;;;;;5071781;28;20527;-71
2022/10/24 20:01:42;;;;;;;5.33;4.83;;;21.10;99.90;;;;;;5071133;28;20479;-71
2022/10/24 20:04:10;;;;;;;7.97;5.50;;;21.10;99.90;;;;;;5071115;28;20890;-71
2022/10/24 20:06:38;;;;;;;10.53;5.50;;;21.10;99.90;;;;;;5072725;28;20574;-70
2022/10/24 20:09:06;;;;;;;6.00;4.50;;;21.10;99.90;;;;;;5076749;28;20473;-73
2022/10/24 20:11:33;;;;;;;8.83;4.27;;;21.10;99.90;;;;;;5078952;28;20868;-68
2022/10/24 20:14:00;;;;;;;5.77;4.13;;;21.10;99.90;;;;;;5077847;28;20565;-73
2022/10/24 20:16:27;;;;;;;4.70;4.30;;;21.10;99.90;;;;;;5075670;28;20501;-69
2022/10/24 20:18:53;;;;;;;6.37;3.93;;;21.10;99.90;;;;;;5074960;28;20859;-72
2022/10/24 20:21:20;;;;;;;5.57;3.70;;;21.20;99.90;;;;;;5074634;28;20566;-71
2022/10/24 20:23:49;;;;;;;5.33;4.23;;;21.20;99.90;;;;;;5075991;28;20467;-72
2022/10/24 20:26:18;;;;;;;7.80;4.80;;;21.20;99.90;;;;;;5074604;28;20439;-73
2022/10/24 20:28:47;;;;;;;5.67;4.53;;;21.20;99.90;;;;;;5074870;28;21015;-71
2022/10/24 20:31:21;;;;;;;4.67;4.20;;;21.20;99.90;;;;;;5073197;28;20818;-70
2022/10/24 20:33:49;;;;;;;8.30;5.33;;;21.20;99.90;;;;;;5074558;28;20474;-73
2022/10/24 20:36:16;;;;;;;7.13;4.33;;;21.20;99.90;;;;;;5075010;28;20534;-73
2022/10/24 20:38:43;;;;;;;7.43;4.80;;;21.20;99.90;;;;;;5075056;28;20442;-76
2022/10/24 20:41:11;;;;;;;4.07;3.67;;;21.10;99.90;;;;;;5074891;28;20447;-71
2022/10/24 20:43:38;;;;;;;5.87;4.40;;;21.10;99.90;;;;;;5074804;28;20549;-72
2022/10/24 20:46:05;;;;;;;4.13;2.70;;;21.10;99.90;;;;;;5074368;28;20447;-72
2022/10/24 20:48:32;;;;;;;5.20;3.70;;;21.10;99.90;;;;;;5075629;28;20447;-73
2022/10/24 20:51:07;;;;;;;4.00;3.60;;;21.10;99.90;;;;;;5075510;28;20448;-75
2022/10/24 20:53:34;;;;;;;6.17;4.37;;;21.10;99.90;;;;;;5075202;28;20550;-75
2022/10/24 20:56:06;;;;;;;4.67;3.20;;;21.10;99.90;;;;;;5075408;28;20864;-71
2022/10/24 20:58:36;;;;;;;2.83;2.63;;;21.10;99.90;;;;;;5076072;28;20808;-72
2022/10/24 21:01:07;;;;;;;3.87;3.40;;;21.10;99.90;;;;;;5073963;28;20535;-71
2022/10/24 21:03:35;;;;;;;5.07;3.87;;;21.10;99.90;;;;;;5076840;28;20467;-70
2022/10/24 21:06:02;;;;;;;7.60;3.20;;;21.10;99.90;;;;;;5073832;28;20447;-72
2022/10/24 21:08:30;;;;;;;4.30;3.90;;;21.10;99.90;;;;;;5073627;28;20447;-71
2022/10/24 21:10:57;;;;;;;3.40;3.10;;;21.10;99.90;;;;;;5073675;28;20453;-71
2022/10/24 21:13:23;;;;;;;3.83;3.30;;;21.10;99.90;;;;;;5076298;28;20570;-74
2022/10/24 21:15:56;;;;;;;8.30;3.57;;;21.10;99.90;;;;;;5075595;28;20529;-74
2022/10/24 21:18:23;;;;;;;4.80;4.40;;;21.10;99.90;;;;;;5074085;28;20447;-70
2022/10/24 21:20:50;;;;;;;5.27;3.50;;;21.10;99.90;;;;;;5073695;28;20450;-70
